To NAV CANADA Home Page Login to a new session Search on AWWS site Feedback and Comments Disclaimer Vers la page française équivalente Tips FAQ What's new on the site To the Forecasts and Observations / NOTAM section To "File a Flight Plan" website Publications and other links Update of the User's profile FIC Telephone Numbers My Weather Data Folder Route Weather Data Regional Weather Data Local Weather Data To the Forecasts and Observations / NOTAM section
Request Generated 05/23/2015 at 16:22:28 UTC . Weather information available at that time is displayed.

METAR/TAF

DEASE LAKE/BC    (show WxCam)

METAR CYDL 231600Z AUTO 10002KT 12/04 A3015 RMK CLD MISG SLP208=
METAR CYDL 231500Z AUTO 07005KT 9SM 10/04 A3015 RMK CLD MISG SLP209=
METAR CYDL 231400Z AUTO 06006KT 9SM CLR 08/04 A3016 RMK SLP212=

TAF CYDL 231538Z 2316/2402 07005KT P6SM SCT120
FM232100 10008KT P6SM SCT080 TEMPO 2321/2402 BKN080 PROB30
2322/2323 VRB15G25KT 6SM TSRA BKN080CB
RMK FCST BASED ON AUTO OBS. NXT FCST BY 231800Z=
Your time UTC time
Weather data provided by Environment Canada and NAV CANADA